Detall de PIREP

Printer-friendly versionPDF version

[2010/09/27 13:49:00]
Flight IATA:CT0001
Pilot Number:011
Company ICAO:CAT
Aircraft Type:F100/A
PAX:122
Departing Airport: LERS
Destination Airport: LELC
Alternate Airport:LEMG
Online: VATSIM
Route:EBROX B28 VLC A34 ALT
Flight Level:FL240
No Slew and time accel
No pause
Crash detect
Detect pilot in Cockpit between each 30 and 45 minutes
13:49 Zero fuel Weight: 85761 Lbs, Fuel Weight: 10282 Lbs
13:49 VATSIM:LERS 271330Z 25012KT 9999 FEW035 20/03 Q1012
13:49 VATSIM:LELC 271300Z 10005KT 030V160 9999 FEW025 25/14 Q1013 NOSIG
13:50 Parking Brakes off
14:00 Take-off
14:00 Take off Weight: 95600 Lbs
14:00 Wind: 252º @ 012 Knots Heading: 248º
14:00 POS N41º 08´ 45´´ E001º 09´ 45´´
14:00 Flaps:2 at 122 Knots
14:00 Gear Up: 123 Knots
14:01 Flaps:1 at 153 Knots
14:01 Flaps:0 at 174 Knots
14:15 Wind:213º@019 Knots Heading: 226º Ground Speed: 380 Knots Altitude 21778 ft
14:16 TOC
14:16 Fuel Weight: 7929 Lb
14:24 TOD
14:24 Fuel Weight: 7279 Lb
14:30 Wind:119º@024 Knots Heading: 171º Ground Speed: 403 Knots Altitude 23008 ft
14:45 Wind:100º@015 Knots Heading: 174º Ground Speed: 273 Knots Altitude 7004 ft
14:54 Flaps:1 at 221 Knots
14:54 Flaps:2 at 207 Knots
14:55 Flaps:3 at 179 Knots
14:55 Gear Down: 178 Knots
14:56 Flaps:4 at 145 Knots
14:58 TouchDown:Rate -289 ft/min Speed: 118 Knots
14:58 VATSIM:LELC 271400Z 10007KT 060V160 9999 FEW025 25/15 Q1012 NOSIG
14:58 Land
14:58 Wind:102º@007 Knots
14:58 Heading: 046º
14:58 Flight Duration: 00:58
14:58 Landing Weight: 90932 Lbs
14:58 POS N37º 46´ 42´´ W000º 48´ 27´´
15:02 Parking brakes on
15:02 Block to Block Duration: 01:12
15:02 Final Fuel: 5033 Lbls
15:02 Spent Fuel: 5249 Lbls
15:02 Flight Length: 218 NM
15:02 TOD Land Length: 174 NM

Exportar CSV

Powered by Drupal - Modified by Danger4k